createdAt,value
2023-02-09T00:07:02.596Z,-3.16
2023-02-09T00:27:02.603Z,-3.23
2023-02-09T00:47:02.605Z,-2.97
2023-02-09T01:07:02.626Z,-2.99
2023-02-09T01:27:02.648Z,-3.13
2023-02-09T02:07:02.632Z,-3.75
2023-02-09T02:27:02.619Z,-3.68
2023-02-09T02:47:02.646Z,-3.85
2023-02-09T03:07:02.641Z,-3.96
2023-02-09T03:27:02.669Z,-4.23
2023-02-09T03:47:02.689Z,-4.20
2023-02-09T04:07:02.665Z,-4.47
2023-02-09T04:47:02.727Z,-4.56
2023-02-09T05:07:02.689Z,-4.96
2023-02-09T05:27:02.727Z,-5.14
2023-02-09T05:47:02.728Z,-5.33
2023-02-09T06:07:02.763Z,-5.27
2023-02-09T06:27:02.740Z,-5.35
2023-02-09T06:47:02.859Z,-5.31
2023-02-09T07:07:02.775Z,-5.38
2023-02-09T07:27:02.769Z,-4.97
2023-02-09T07:47:02.805Z,-4.81
2023-02-09T08:07:02.801Z,-4.50
2023-02-09T08:27:02.818Z,-4.14
2023-02-09T08:47:02.833Z,-3.66
2023-02-09T09:07:02.890Z,-3.14
2023-02-09T09:27:02.832Z,-2.52
2023-02-09T09:47:02.840Z,-1.94
2023-02-09T10:07:02.842Z,-1.30
2023-02-09T10:27:02.846Z,-0.67
2023-02-09T10:47:02.844Z,-0.15
2023-02-09T11:07:02.832Z,0.36
2023-02-09T11:27:02.845Z,0.81
2023-02-09T11:47:02.852Z,1.06
2023-02-09T12:07:02.846Z,1.48
2023-02-09T12:27:02.831Z,1.57
2023-02-09T12:47:02.841Z,1.74
2023-02-09T13:07:02.859Z,1.92
2023-02-09T13:27:02.838Z,1.94
2023-02-09T13:47:02.908Z,2.03
2023-02-09T14:07:02.821Z,2.05
2023-02-09T14:27:02.808Z,1.92
2023-02-09T14:47:02.799Z,1.69
2023-02-09T15:07:02.797Z,1.39
2023-02-09T15:27:02.797Z,1.17
2023-02-09T15:47:02.788Z,0.94
2023-02-09T16:07:02.794Z,0.68
2023-02-09T16:27:02.874Z,0.49
2023-02-09T16:47:02.782Z,0.22
2023-02-09T17:07:02.784Z,-0.03
2023-02-09T17:27:02.864Z,-0.14
2023-02-09T17:47:02.773Z,-0.35
2023-02-09T18:07:02.781Z,-0.44
2023-02-09T18:27:02.781Z,-0.56
2023-02-09T18:47:02.787Z,-0.74
2023-02-09T19:07:02.813Z,-0.92
2023-02-09T19:27:02.801Z,-1.00
2023-02-09T19:47:02.782Z,-1.18
2023-02-09T20:07:02.792Z,-1.25
2023-02-09T20:27:03.073Z,-1.08
2023-02-09T20:47:02.970Z,-1.33
2023-02-09T21:07:02.773Z,-1.26
2023-02-09T21:27:02.791Z,-1.60
2023-02-09T21:47:02.882Z,-1.77
2023-02-09T22:07:02.766Z,-1.94
2023-02-09T22:27:02.775Z,-1.96
2023-02-09T22:47:02.779Z,-1.95
2023-02-09T23:07:02.790Z,-2.21
2023-02-09T23:27:02.783Z,-2.26
2023-02-09T23:47:02.794Z,-2.44
